Capitol Logistics 311


KRFD
Chicago/Rockford International Airport
Rockford, Illinois, US
KABE
Lehigh Valley International Airport
Allentown, Pennsylvania, US

Activity Log

Date Flight Route Aircraft Duration
04/02/2020 CPX311 OBK J584 CRL J190 SLT J584 MEGSS B763 1h 41m
02/25/2020 CPX311 OBK J584 CRL J190 SLT J584 MEGSS B763 1h 42m
01/15/2019 CPX411 JOT J60 DANNR ETX B752 1h 53m
01/07/2019 CPX311 JOT J60 DANNR ETX B763 1h 41m

Route Details

Aircraft Information
Primary: Boeing 767-300BDSF
Backup: Not Available
Route Data
Distance: 623nm
Sched. Duration: 1h 19m
Avg. Duration: 1h 44m (+25m)
Times Flown: 4
Recm'd Route: QUOTE JOT J60 PSB V30 ETX
Planned Altitude: 35,000ft
Origin Wx: KRFD 032254Z 09004KT 10SM FEW060 FEW250 31/18 A3003 RMK AO2 SLP165 CB DSNT N MOV SW T03110178
Dest. Wx: KABE 032303Z 29017G25KT 10SM VCTS SCT065 BKN080 29/19 A2983 RMK AO2 LTG DSNT W PRESRR T02890189
Notes:

Financial History
Total Freight: 376,737lbs
Average Load: 94,184lbs/flt
Fuel Used: 70,450lbs
Avg. Fuel Used: 17,613lbs/flt
Fuel Expense: $50,747
Avg. Fuel Expense: $12,687
Avg. Fuel Cost: $0.72/lbs
Total Gross Income: $498,672
Pilot Pay: $816
Total Expenses: $54,065
Total Revenue: $392,393
Average Revenue: $124,668.09